createdAt,value
2023-04-27T00:02:22.854Z,95516.41
2023-04-27T00:05:25.168Z,95515.13
2023-04-27T00:08:29.852Z,95512.09
2023-04-27T00:11:31.792Z,95506.66
2023-04-27T00:14:33.887Z,95510.13
2023-04-27T00:17:36.211Z,95500.31
2023-04-27T00:20:38.435Z,95501.13
2023-04-27T00:23:42.352Z,95501.63
2023-04-27T00:26:45.451Z,95489.00
2023-04-27T00:29:48.975Z,95496.06
2023-04-27T00:32:52.563Z,95497.03
2023-04-27T00:35:54.590Z,95490.38
2023-04-27T00:39:02.422Z,95493.78
2023-04-27T00:42:04.578Z,95486.25
2023-04-27T00:45:09.030Z,95492.19
2023-04-27T00:48:11.704Z,95496.78
2023-04-27T00:51:19.276Z,95489.78
2023-04-27T00:54:25.836Z,95489.97
2023-04-27T00:57:28.623Z,95487.72
2023-04-27T01:00:30.580Z,95488.97
2023-04-27T01:03:33.297Z,95470.00
2023-04-27T01:06:35.136Z,95473.09
2023-04-27T01:09:41.726Z,95477.53
2023-04-27T01:12:46.056Z,95485.72
2023-04-27T01:15:48.218Z,95485.81
2023-04-27T01:18:52.367Z,95477.00
2023-04-27T01:21:54.141Z,95475.88
2023-04-27T01:25:00.048Z,95485.75
2023-04-27T01:28:02.833Z,95476.16
2023-04-27T01:31:04.750Z,95473.66
2023-04-27T01:34:08.004Z,95474.34
2023-04-27T01:37:12.688Z,95471.88
2023-04-27T01:40:17.286Z,95474.50
2023-04-27T01:43:21.751Z,95480.53
2023-04-27T01:46:24.852Z,95487.50
2023-04-27T01:49:29.669Z,95482.09
2023-04-27T01:52:31.837Z,95482.56
2023-04-27T01:55:35.002Z,95472.22
2023-04-27T01:58:38.214Z,95485.75
2023-04-27T02:01:40.252Z,95490.06
2023-04-27T02:04:43.837Z,95486.13
2023-04-27T02:07:45.655Z,95492.47
2023-04-27T02:10:48.854Z,95491.13
2023-04-27T02:13:51.745Z,95488.97
2023-04-27T02:16:55.945Z,95491.19
2023-04-27T02:19:57.914Z,95497.38
2023-04-27T02:23:01.821Z,95495.69
2023-04-27T02:26:05.161Z,95497.56
2023-04-27T02:29:07.444Z,95498.28
2023-04-27T02:32:10.951Z,95501.03
2023-04-27T02:35:12.662Z,95496.56
2023-04-27T02:38:15.996Z,95503.78
2023-04-27T02:41:19.369Z,95497.59
2023-04-27T02:44:23.097Z,95496.03
2023-04-27T02:47:26.224Z,95497.66
2023-04-27T02:50:31.742Z,95503.78
2023-04-27T02:53:34.666Z,95499.88
2023-04-27T02:56:37.798Z,95497.19
2023-04-27T02:59:39.822Z,95501.22
2023-04-27T03:02:44.476Z,95500.59
2023-04-27T03:05:47.712Z,95495.69
2023-04-27T03:08:49.840Z,95490.03
2023-04-27T03:11:54.256Z,95496.88
2023-04-27T03:14:56.071Z,95499.25
2023-04-27T03:17:58.028Z,95500.94
2023-04-27T03:21:08.457Z,95498.19
2023-04-27T03:24:10.665Z,95502.03
2023-04-27T03:27:15.268Z,95495.28
2023-04-27T03:30:17.396Z,95495.81
2023-04-27T03:33:19.656Z,95495.66
2023-04-27T03:36:23.855Z,95501.28
2023-04-27T03:39:28.905Z,95501.03
2023-04-27T03:42:33.338Z,95510.81
2023-04-27T03:45:36.619Z,95505.47
2023-04-27T03:48:38.538Z,95509.78
2023-04-27T03:51:41.222Z,95514.63
2023-04-27T03:54:43.081Z,95505.19
2023-04-27T03:57:50.203Z,95519.47
2023-04-27T04:00:52.986Z,95511.84
2023-04-27T04:03:54.897Z,95516.25
2023-04-27T04:06:57.306Z,95520.81
2023-04-27T04:09:59.089Z,95530.31
2023-04-27T04:13:04.920Z,95528.16
2023-04-27T04:16:09.183Z,95522.38
2023-04-27T04:19:11.027Z,95538.00
2023-04-27T04:22:12.857Z,95531.97
2023-04-27T04:25:17.240Z,95532.91
2023-04-27T04:28:20.739Z,95527.97
2023-04-27T04:31:22.627Z,95532.44
2023-04-27T04:34:26.018Z,95538.19
2023-04-27T04:37:28.267Z,95550.34
2023-04-27T04:40:33.736Z,95550.84
2023-04-27T04:43:37.498Z,95561.81
2023-04-27T04:46:39.803Z,95557.59
2023-04-27T04:49:45.254Z,95562.72
2023-04-27T04:52:47.039Z,95567.81
2023-04-27T04:55:50.382Z,95569.38
2023-04-27T04:58:54.513Z,95573.25
2023-04-27T05:01:56.503Z,95578.69
2023-04-27T05:04:59.464Z,95584.06
2023-04-27T05:08:02.483Z,95588.28
2023-04-27T05:11:04.760Z,95583.72
2023-04-27T05:14:08.671Z,95589.75
2023-04-27T05:17:12.945Z,95591.16
2023-04-27T05:20:15.968Z,95597.63
2023-04-27T05:23:19.120Z,95598.84
2023-04-27T05:26:21.076Z,95604.69
2023-04-27T05:29:27.021Z,95603.31
2023-04-27T05:32:29.310Z,95605.16
2023-04-27T05:35:31.770Z,95613.41
2023-04-27T05:38:36.034Z,95607.34
2023-04-27T05:41:38.128Z,95607.88
2023-04-27T05:44:42.766Z,95603.03
2023-04-27T05:47:45.367Z,95604.69
2023-04-27T05:50:49.626Z,95606.41
2023-04-27T05:53:52.883Z,95603.03
2023-04-27T05:56:55.019Z,95608.13
2023-04-27T05:59:58.280Z,95612.22
2023-04-27T06:03:00.954Z,95611.19
2023-04-27T06:06:03.862Z,95616.78
2023-04-27T06:09:05.641Z,95619.91
2023-04-27T06:12:08.622Z,95614.69
2023-04-27T06:15:12.106Z,95617.81
2023-04-27T06:18:15.114Z,95613.31
2023-04-27T06:21:17.788Z,95612.59
2023-04-27T06:24:19.876Z,95623.16
2023-04-27T06:27:21.705Z,95623.31
2023-04-27T06:30:29.708Z,95630.59
2023-04-27T06:33:34.137Z,95623.06
2023-04-27T06:36:36.219Z,95620.16
2023-04-27T06:39:38.084Z,95619.72
2023-04-27T06:42:40.166Z,95629.78
2023-04-27T06:45:43.468Z,95625.72
2023-04-27T06:48:45.302Z,95628.19
2023-04-27T06:51:48.198Z,95630.81
2023-04-27T06:54:50.944Z,95635.50
2023-04-27T06:57:53.004Z,95633.78
2023-04-27T07:00:56.162Z,95628.78
2023-04-27T07:04:00.778Z,95639.59
2023-04-27T07:07:04.094Z,95635.59
2023-04-27T07:10:08.280Z,95638.28
2023-04-27T07:13:10.925Z,95638.78
2023-04-27T07:16:15.514Z,95642.78
2023-04-27T07:19:17.430Z,95641.03
2023-04-27T07:22:19.273Z,95631.97
2023-04-27T07:25:21.761Z,95629.84
2023-04-27T07:28:23.568Z,95633.84
2023-04-27T07:31:30.197Z,95638.00
2023-04-27T07:34:41.231Z,95633.13
2023-04-27T07:37:50.489Z,95641.72
2023-04-27T07:40:52.576Z,95635.28
2023-04-27T07:43:54.362Z,95636.13
2023-04-27T07:46:59.112Z,95635.53
2023-04-27T07:50:05.075Z,95641.03
2023-04-27T07:53:07.179Z,95638.06
2023-04-27T07:56:10.298Z,95644.00
2023-04-27T07:59:12.416Z,95643.31
2023-04-27T08:02:19.849Z,95644.31
2023-04-27T08:05:23.175Z,95657.81
2023-04-27T08:08:25.540Z,95660.22
2023-04-27T08:11:27.804Z,95665.28
2023-04-27T08:14:29.691Z,95664.56
2023-04-27T08:17:32.942Z,95661.16
2023-04-27T08:20:34.785Z,95663.63
2023-04-27T08:23:37.052Z,95674.66
2023-04-27T08:26:38.832Z,95668.88
2023-04-27T08:29:46.630Z,95668.16
2023-04-27T08:32:49.953Z,95664.06
2023-04-27T08:35:54.431Z,95664.28
2023-04-27T08:38:57.808Z,95665.38
2023-04-27T08:41:59.619Z,95659.66
2023-04-27T08:45:02.029Z,95660.47
2023-04-27T08:48:08.958Z,95656.72
2023-04-27T08:51:14.792Z,95661.44
2023-04-27T08:54:17.713Z,95672.72
2023-04-27T08:57:19.529Z,95668.53
2023-04-27T09:00:27.118Z,95672.03
2023-04-27T09:03:30.834Z,95667.50
2023-04-27T09:06:35.889Z,95660.28
2023-04-27T09:09:39.363Z,95660.69
2023-04-27T09:12:41.473Z,95662.97
2023-04-27T09:15:47.121Z,95661.53
2023-04-27T09:18:52.296Z,95657.31
2023-04-27T09:22:04.332Z,95667.81
2023-04-27T09:25:08.130Z,95663.31
2023-04-27T09:28:15.004Z,95658.03
2023-04-27T09:31:17.763Z,95662.28
2023-04-27T09:34:21.360Z,95657.38
2023-04-27T09:37:23.488Z,95655.00
2023-04-27T09:40:27.484Z,95657.81
2023-04-27T09:43:29.577Z,95654.31
2023-04-27T09:46:33.330Z,95659.56
2023-04-27T09:49:36.764Z,95648.00
2023-04-27T09:52:38.653Z,95658.53
2023-04-27T09:55:45.975Z,95652.75
2023-04-27T09:59:10.198Z,95644.28
2023-04-27T10:02:24.873Z,95647.13
2023-04-27T10:05:44.003Z,95637.53
2023-04-27T10:08:47.873Z,95641.84
2023-04-27T10:11:50.824Z,95644.31
2023-04-27T10:14:53.998Z,95642.00
2023-04-27T10:17:57.194Z,95640.88
2023-04-27T10:21:14.128Z,95643.56
2023-04-27T10:24:17.561Z,95638.22
2023-04-27T10:27:21.203Z,95638.63
2023-04-27T10:30:25.122Z,95634.03
2023-04-27T10:33:30.777Z,95632.13
2023-04-27T10:36:36.455Z,95629.41
2023-04-27T10:39:48.616Z,95632.50
2023-04-27T10:42:51.634Z,95631.00
2023-04-27T10:45:54.742Z,95627.88
2023-04-27T10:48:57.123Z,95625.16
2023-04-27T10:52:01.290Z,95624.03
2023-04-27T10:55:14.424Z,95620.13
2023-04-27T10:58:26.702Z,95612.03
2023-04-27T11:01:35.043Z,95616.63
2023-04-27T11:04:39.453Z,95615.47
2023-04-27T11:07:43.185Z,95610.06
2023-04-27T11:10:47.767Z,95607.78
2023-04-27T11:13:50.183Z,95605.44
2023-04-27T11:16:52.812Z,95609.31
2023-04-27T11:19:55.150Z,95613.94
2023-04-27T11:22:58.735Z,95608.88
2023-04-27T11:26:09.468Z,95607.34
2023-04-27T11:29:12.770Z,95606.59
2023-04-27T11:32:21.266Z,95598.88
2023-04-27T11:35:33.065Z,95600.03
2023-04-27T11:38:36.254Z,95600.06
2023-04-27T11:41:38.142Z,95594.63
2023-04-27T11:44:40.161Z,95594.63
2023-04-27T11:47:46.896Z,95595.78
2023-04-27T11:50:49.524Z,95603.91
2023-04-27T11:53:52.965Z,95611.22
2023-04-27T11:57:07.657Z,95606.97
2023-04-27T12:00:12.530Z,95609.66
2023-04-27T12:03:16.932Z,95599.63
2023-04-27T12:06:32.796Z,95599.19
2023-04-27T12:09:40.366Z,95602.22
2023-04-27T12:12:42.520Z,95595.66
2023-04-27T12:15:45.548Z,95599.09
2023-04-27T12:18:47.701Z,95604.06
2023-04-27T12:21:50.986Z,95601.91
2023-04-27T12:24:54.604Z,95601.13
2023-04-27T12:27:56.345Z,95593.44
2023-04-27T12:30:58.376Z,95596.88
2023-04-27T12:34:00.236Z,95603.47
2023-04-27T12:37:04.327Z,95600.03
2023-04-27T12:40:10.380Z,95608.06
2023-04-27T12:43:13.246Z,95603.44
2023-04-27T12:46:15.065Z,95603.41
2023-04-27T12:49:17.677Z,95613.06
2023-04-27T12:52:19.529Z,95605.34
2023-04-27T12:55:32.905Z,95616.16
2023-04-27T12:58:40.266Z,95603.00
2023-04-27T13:01:43.518Z,95604.94
2023-04-27T13:04:45.391Z,95603.03
2023-04-27T13:07:47.420Z,95603.75
2023-04-27T13:10:51.499Z,95604.97
2023-04-27T13:13:53.466Z,95604.59
2023-04-27T13:16:55.813Z,95608.41
2023-04-27T13:20:00.242Z,95604.91
2023-04-27T13:23:04.793Z,95602.06
2023-04-27T13:26:10.581Z,95602.91
2023-04-27T13:29:12.404Z,95595.91
2023-04-27T13:32:16.845Z,95600.75
2023-04-27T13:35:19.752Z,95596.47
2023-04-27T13:38:21.614Z,95591.03
2023-04-27T13:41:25.656Z,95585.97
2023-04-27T13:44:27.370Z,95588.00
2023-04-27T13:47:32.125Z,95583.34
2023-04-27T13:50:35.206Z,95592.91
2023-04-27T13:53:36.997Z,95578.09
2023-04-27T13:56:40.619Z,95581.44
2023-04-27T13:59:42.377Z,95585.75
2023-04-27T14:02:45.321Z,95578.34
2023-04-27T14:05:49.617Z,95575.69
2023-04-27T14:08:55.761Z,95584.50
2023-04-27T14:12:00.531Z,95578.97
2023-04-27T14:15:02.518Z,95582.19
2023-04-27T14:18:05.847Z,95583.25
2023-04-27T14:21:07.767Z,95579.94
2023-04-27T14:24:12.408Z,95581.66
2023-04-27T14:27:15.719Z,95578.81
2023-04-27T14:30:18.110Z,95580.91
2023-04-27T14:33:19.900Z,95584.94
2023-04-27T14:36:22.689Z,95586.91
2023-04-27T14:39:24.590Z,95589.13
2023-04-27T14:42:29.378Z,95595.78
2023-04-27T14:45:43.622Z,95587.88
2023-04-27T14:48:52.706Z,95588.06
2023-04-27T14:51:56.566Z,95592.75
2023-04-27T14:54:59.439Z,95586.16
2023-04-27T14:58:02.757Z,95591.25
2023-04-27T15:01:04.591Z,95591.22
2023-04-27T15:04:10.732Z,95586.09
2023-04-27T15:07:12.855Z,95587.03
2023-04-27T15:10:16.502Z,95587.94
2023-04-27T15:13:20.188Z,95583.72
2023-04-27T15:16:24.945Z,95590.31
2023-04-27T15:19:28.190Z,95584.72
2023-04-27T15:22:29.967Z,95584.22
2023-04-27T15:25:32.981Z,95578.69
2023-04-27T15:28:36.386Z,95579.06
2023-04-27T15:31:38.521Z,95569.34
2023-04-27T15:34:40.929Z,95572.22
2023-04-27T15:37:46.788Z,95569.63
2023-04-27T15:40:48.569Z,95567.47
2023-04-27T15:43:52.980Z,95561.25
2023-04-27T15:46:55.081Z,95562.75
2023-04-27T15:49:58.207Z,95557.25
2023-04-27T15:53:00.273Z,95562.72
2023-04-27T15:56:03.826Z,95556.81
2023-04-27T15:59:06.956Z,95557.19
2023-04-27T16:02:09.109Z,95557.31
2023-04-27T16:05:13.544Z,95557.75
2023-04-27T16:08:15.544Z,95549.22
2023-04-27T16:11:17.418Z,95552.00
2023-04-27T16:14:20.830Z,95547.78
2023-04-27T16:17:22.862Z,95551.22
2023-04-27T16:20:29.234Z,95546.00
2023-04-27T16:23:31.166Z,95539.78
2023-04-27T16:26:32.998Z,95540.47
2023-04-27T16:29:38.197Z,95536.97
2023-04-27T16:32:40.146Z,95554.41
2023-04-27T16:35:44.394Z,95547.09
2023-04-27T16:38:47.178Z,95552.44
2023-04-27T16:41:49.564Z,95547.13
2023-04-27T16:44:52.895Z,95557.56
2023-04-27T16:47:57.086Z,95559.44
2023-04-27T16:51:06.012Z,95558.88
2023-04-27T16:54:08.807Z,95560.38
2023-04-27T16:57:11.968Z,95563.34
2023-04-27T17:00:16.080Z,95559.94
2023-04-27T17:03:20.330Z,95561.88
2023-04-27T17:06:22.663Z,95564.28
2023-04-27T17:09:24.713Z,95555.75
2023-04-27T17:12:30.184Z,95560.78
2023-04-27T17:15:33.835Z,95567.56
2023-04-27T17:18:35.564Z,95562.97
2023-04-27T17:21:37.340Z,95561.59
2023-04-27T17:24:39.373Z,95564.47
2023-04-27T17:27:42.409Z,95567.28
2023-04-27T17:30:48.336Z,95557.50
2023-04-27T17:33:50.337Z,95560.97
2023-04-27T17:36:52.491Z,95566.72
2023-04-27T17:39:54.502Z,95571.75
2023-04-27T17:42:59.853Z,95567.75
2023-04-27T17:46:09.966Z,95568.44
2023-04-27T17:49:17.233Z,95567.91
2023-04-27T17:52:20.261Z,95560.63
2023-04-27T17:55:22.901Z,95559.34
2023-04-27T17:58:24.849Z,95561.75
2023-04-27T18:01:31.602Z,95550.69
2023-04-27T18:04:33.538Z,95555.22
2023-04-27T18:07:36.563Z,95560.00
2023-04-27T18:10:39.661Z,95567.44
2023-04-27T18:13:42.746Z,95568.53
2023-04-27T18:16:46.812Z,95575.16
2023-04-27T18:19:57.972Z,95566.66
2023-04-27T18:23:06.917Z,95564.63
2023-04-27T18:26:14.159Z,95564.66
2023-04-27T18:29:17.310Z,95565.09
2023-04-27T18:32:22.520Z,95568.97
2023-04-27T18:35:24.427Z,95573.66
2023-04-27T18:38:29.697Z,95586.06
2023-04-27T18:41:31.941Z,95588.81
2023-04-27T18:44:37.519Z,95586.53
2023-04-27T18:47:41.222Z,95588.06
2023-04-27T18:50:44.932Z,95588.97
2023-04-27T18:53:48.456Z,95584.28
2023-04-27T18:56:50.633Z,95593.16
2023-04-27T18:59:52.593Z,95597.56
2023-04-27T19:02:56.255Z,95602.09
2023-04-27T19:05:58.477Z,95603.91
2023-04-27T19:09:00.915Z,95607.00
2023-04-27T19:12:03.728Z,95612.13
2023-04-27T19:15:07.628Z,95611.59
2023-04-27T19:18:11.826Z,95607.88
2023-04-27T19:21:14.318Z,95615.88
2023-04-27T19:24:16.679Z,95608.13
2023-04-27T19:27:19.039Z,95609.34
2023-04-27T19:30:30.388Z,95615.81
2023-04-27T19:33:33.620Z,95617.75
2023-04-27T19:36:36.847Z,95605.06
2023-04-27T19:39:40.899Z,95614.56
2023-04-27T19:42:43.041Z,95621.22
2023-04-27T19:45:45.285Z,95614.72
2023-04-27T19:48:49.351Z,95625.59
2023-04-27T19:51:53.615Z,95613.53
2023-04-27T19:54:55.645Z,95615.38
2023-04-27T19:57:59.748Z,95624.78
2023-04-27T20:01:01.860Z,95630.81
2023-04-27T20:04:05.808Z,95632.16
2023-04-27T20:07:07.742Z,95637.03
2023-04-27T20:10:09.596Z,95637.84
2023-04-27T20:13:12.930Z,95645.97
2023-04-27T20:16:22.058Z,95635.94
2023-04-27T20:19:25.257Z,95640.38
2023-04-27T20:22:27.270Z,95635.56
2023-04-27T20:25:30.714Z,95634.19
2023-04-27T20:28:32.486Z,95637.31
2023-04-27T20:31:34.585Z,95631.94
2023-04-27T20:34:40.348Z,95630.25
2023-04-27T20:37:45.033Z,95634.56
2023-04-27T20:40:46.996Z,95628.78
2023-04-27T20:43:50.045Z,95633.00
2023-04-27T20:46:51.797Z,95631.50
2023-04-27T20:49:57.497Z,95634.47
2023-04-27T20:52:59.273Z,95634.03
2023-04-27T20:56:01.179Z,95629.25
2023-04-27T20:59:03.224Z,95628.06
2023-04-27T21:02:05.237Z,95627.88
2023-04-27T21:05:12.041Z,95618.66
2023-04-27T21:08:14.494Z,95615.38
2023-04-27T21:11:18.500Z,95608.66
2023-04-27T21:14:20.295Z,95605.66
2023-04-27T21:17:25.371Z,95606.31
2023-04-27T21:20:28.601Z,95604.78
2023-04-27T21:23:33.875Z,95602.00
2023-04-27T21:26:36.072Z,95599.94
2023-04-27T21:29:40.232Z,95599.69
2023-04-27T21:32:44.955Z,95588.31
2023-04-27T21:35:48.201Z,95598.75
2023-04-27T21:38:50.249Z,95593.88
2023-04-27T21:41:52.909Z,95584.34
2023-04-27T21:44:56.941Z,95590.13
2023-04-27T21:48:02.339Z,95589.78
2023-04-27T21:51:07.091Z,95579.47
2023-04-27T21:54:09.100Z,95579.91
2023-04-27T21:57:11.104Z,95570.84
2023-04-27T22:00:14.612Z,95575.66
2023-04-27T22:03:16.533Z,95580.81
2023-04-27T22:06:21.835Z,95577.09
2023-04-27T22:09:24.978Z,95575.88
2023-04-27T22:12:26.775Z,95581.44
2023-04-27T22:15:28.727Z,95578.25
2023-04-27T22:18:30.896Z,95573.34
2023-04-27T22:21:36.559Z,95582.78
2023-04-27T22:24:39.367Z,95585.13
2023-04-27T22:27:44.827Z,95589.63
2023-04-27T22:30:48.875Z,95588.44
2023-04-27T22:33:51.055Z,95590.69
2023-04-27T22:36:57.771Z,95591.78
2023-04-27T22:40:00.564Z,95592.84
2023-04-27T22:43:02.422Z,95585.25
2023-04-27T22:46:05.522Z,95572.97
2023-04-27T22:49:07.625Z,95579.34
2023-04-27T22:52:11.354Z,95568.13
2023-04-27T22:55:14.402Z,95570.88
2023-04-27T22:58:16.577Z,95567.38
2023-04-27T23:01:18.793Z,95568.84
2023-04-27T23:04:21.379Z,95576.41
2023-04-27T23:07:25.220Z,95565.97
2023-04-27T23:10:27.049Z,95561.13
2023-04-27T23:13:28.750Z,95564.53
2023-04-27T23:16:30.532Z,95568.97
2023-04-27T23:19:32.802Z,95554.31
2023-04-27T23:22:36.668Z,95558.94
2023-04-27T23:25:39.900Z,95558.81
2023-04-27T23:28:42.876Z,95556.25
2023-04-27T23:31:44.910Z,95553.00
2023-04-27T23:34:47.408Z,95549.78
2023-04-27T23:37:53.099Z,95541.72
2023-04-27T23:40:56.174Z,95540.25
2023-04-27T23:43:57.960Z,95533.28
2023-04-27T23:47:02.051Z,95546.94
2023-04-27T23:50:04.512Z,95540.22
2023-04-27T23:53:11.474Z,95539.84
2023-04-27T23:56:18.754Z,95534.72
2023-04-27T23:59:20.758Z,95529.88
